• Join FlightAware (Why Join?)
  • Login
  • US Flag 
01:34PM EDT


 

Airport Tracker/Info


-or-


 

Live Flight TrackerFlight Track Log ✈ UAL4695 ✈ 14-Apr-2013 ✈ KSAV - KEWR

Flight Track Log - Related Links

Times and Time Zones

All times are in EDT time to prevent confusion due to time zone crossing. See the UAL4695 flight status page for this flight to view local times or setup timezone preferences in your user account.

Time Position Orientation Groundspeed Altitude Reporting Facility
EDT Latitude Longitude Course Direction KTS MPH feet Rate Location/Type
05:24PM 32.2106 -81.1197 North 239 275 5,300  Level Jacksonville Center
05:25PM 32.5224 -81.1514 North  Level FlightAware Approximate
05:25PM 32.2694 -81.1456 340° North 233 268 7,500  Level Jacksonville Center
05:26PM 32.6256 -81.1500 North  Level FlightAware Approximate
05:26PM 32.3406 -81.1714 343° North 252 290 9,400  Level Jacksonville Center
05:27PM 32.7287 -81.1464 North  Level FlightAware Approximate
05:27PM 32.4264 -81.1797 355° North 268 308 11,200  Level Jacksonville Center
05:28PM 32.8314 -81.1336 North  Level FlightAware Approximate
05:28PM 32.5056 -81.1731 North 301 346 12,300  Level Jacksonville Center
05:29PM 32.9341 -81.1207 North  Level FlightAware Approximate
05:29PM 32.6139 -81.1636 North 347 399 13,500  Level Jacksonville Center
05:30PM 32.7183 -81.1519 North 367 422 14,400 900 Climbing Jacksonville Center
05:31PM 32.8289 -81.1447 North 377 434 15,400 960 Climbing Jacksonville Center
05:32PM 32.9392 -81.1353 North 384 442 16,400 900 Climbing Jacksonville Center
05:33PM 33.0517 -81.1231 North 389 448 17,300 900 Climbing Jacksonville Center
05:34PM 33.1644 -81.1158 North 395 455 18,200 900 Climbing Jacksonville Center
05:35PM 33.2750 -81.1061 North 400 460 19,200 960 Climbing Jacksonville Center
05:36PM 33.3917 -81.0964 North 406 467 20,200 900 Climbing Jacksonville Center
05:37PM 33.5042 -81.0892 North 406 467 21,100 900 Climbing Jacksonville Center
05:38PM 33.6231 -81.0767 North 412 474 22,100 960 Climbing Jacksonville Center
05:39PM 33.7417 -81.0642 North 417 480 23,100 960 Climbing Jacksonville Center
05:40PM 33.8583 -81.0444 North 423 487 24,100 900 Climbing Jacksonville Center
05:41PM 33.9550 -80.9497 39° Northeast 408 470 24,900 420 Climbing Jacksonville Center
05:42PM 34.0514 -80.8472 41° Northeast 440 506 25,000  Climbing Jacksonville Center
05:43PM 34.1497 -80.7397 42° Northeast 461 531 25,000 360 Level Jacksonville Center
05:44PM 34.2522 -80.6267 42° Northeast 480 552 25,800 1,260 Climbing Jacksonville Center
05:45PM 34.3461 -80.5211 43° Northeast 480 552 27,600 1,800 Climbing Jacksonville Center
05:46PM 34.4361 -80.4228 42° Northeast 455 524 29,500 1,380 Climbing Jacksonville Center
05:48PM 34.5858 -80.2514 43° Northeast 429 494 31,700 1,860 Climbing Washington Center
05:49PM 34.6819 -80.1431 43° Northeast 429 494 35,000 900 Climbing Washington Center
05:50PM 34.7778 -80.0347 43° Northeast 429 494 33,800 -120 Descending Washington Center
05:51PM 34.8692 -79.9358 42° Northeast 429 494 34,800 600 Climbing Washington Center
05:52PM 34.9581 -79.8367 42° Northeast 429 494 35,000 60 Climbing Washington Center
05:53PM 35.0517 -79.7275 44° Northeast 435 501 35,000  Level Washington Center
05:54PM 35.1600 -79.6111 41° Northeast 454 522 35,000  Level Washington Center
05:55PM 35.2736 -79.5200 33° Northeast 475 547 35,000  Level Washington Center
05:56PM 35.3953 -79.4344 30° Northeast 488 562 35,000  Level Washington Center
05:57PM 35.5150 -79.3483 30° Northeast 507 583 35,000  Level Washington Center
05:58PM 35.6325 -79.2617 31° Northeast 494 568 35,000  Level Washington Center
05:59PM 35.7497 -79.1750 31° Northeast 489 563 35,000  Level Washington Center
06:00PM 35.8650 -79.0906 31° Northeast 483 556 35,000  Level Washington Center
06:01PM 35.9822 -79.0033 31° Northeast 483 556 35,000  Level Washington Center
06:02PM 36.1017 -78.9161 31° Northeast 483 556 35,000  Level Washington Center
06:03PM 36.2167 -78.8308 31° Northeast 483 556 35,000  Level Washington Center
06:04PM 36.3336 -78.7453 31° Northeast 488 562 35,000  Level Washington Center
06:05PM 36.4506 -78.6569 31° Northeast 488 562 35,000  Level Washington Center
06:06PM 36.5697 -78.5686 31° Northeast 488 562 35,000  Level Washington Center
06:07PM 36.6611 -78.4969 32° Northeast 488 562 35,000  Level Washington Center
06:08PM 36.7994 -78.3908 32° Northeast 488 562 35,000  Level Washington Center
06:09PM 36.9161 -78.2989 32° Northeast 488 562 35,000  Level Washington Center
06:10PM 37.0350 -78.2094 31° Northeast 488 562 35,000  Level Washington Center
06:11PM 37.1475 -78.1219 32° Northeast 488 562 35,000  Level Washington Center
06:12PM 37.2642 -78.0319 32° Northeast 482 555 35,000  Level Washington Center
06:13PM 37.3722 -77.9492 31° Northeast 489 563 35,000  Level Washington Center
06:14PM 37.4886 -77.8611 31° Northeast 489 563 35,000  Level Washington Center
06:15PM 37.6031 -77.7622 34° Northeast 489 563 35,000  Level Washington Center
06:16PM 37.7153 -77.6606 36° Northeast 498 573 35,000  Level Washington Center
06:17PM 37.8361 -77.5506 36° Northeast 498 573 35,000  Level Washington Center
06:18PM 37.9461 -77.4481 36° Northeast 498 573 35,000  Level Washington Center
06:19PM 38.0456 -77.3558 36° Northeast 498 573 35,000  Level Washington Center
06:20PM 38.1575 -77.2553 35° Northeast 493 567 35,000  Level Washington Center
06:21PM 38.2694 -77.1519 36° Northeast 493 567 35,000  Level Washington Center
06:22PM 38.3769 -77.0511 36° Northeast 488 562 35,000  Level Washington Center
06:23PM 38.4867 -76.9497 36° Northeast 483 556 35,000  Level Washington Center
06:24PM 38.5961 -76.8481 36° Northeast 483 556 35,000  Level Washington Center
06:25PM 38.7036 -76.7436 37° Northeast 483 556 35,000  Level Washington Center
06:26PM 38.8089 -76.6306 40° Northeast 483 556 35,000  Level Washington Center
06:27PM 38.9119 -76.5094 42° Northeast 494 568 35,000 -900 Level Washington Center
06:28PM 39.0150 -76.3906 42° Northeast 499 574 33,300 -2,520 Descending Washington Center
06:29PM 39.1136 -76.2739 43° Northeast 487 560 30,000 -3,120 Descending Washington Center
06:30PM 39.2247 -76.1489 41° Northeast 487 560 27,100 -1,500 Descending Washington Center
06:31PM 39.3169 -76.0369 43° Northeast 473 544 27,000 -60 Descending Washington Center
06:32PM 39.4131 -75.9219 43° Northeast 468 539 27,000 -600 Level Washington Center
06:33PM 39.5133 -75.8067 42° Northeast 468 539 25,900 -1,320 Descending Washington Center
06:34PM 39.6114 -75.6939 42° Northeast 473 544 24,400 -2,040 Descending Washington Center
06:35PM 39.7031 -75.5781 44° Northeast 463 533 21,900 -2,220 Descending Washington Center
06:36PM 39.7822 -75.4861 42° Northeast 448 516 20,000 -2,100 Descending Washington Center
06:37PM 39.8717 -75.3778 43° Northeast 432 497 17,800 -2,340 Descending Washington Center
06:38PM 39.9528 -75.2775 43° Northeast 415 478 15,400 -2,520 Descending Washington Center
06:39PM 40.0294 -75.1822 44° Northeast 390 449 12,800 -2,220 Descending Washington Center
06:40PM 40.1042 -75.0925 43° Northeast 372 428 11,000 -1,320 Descending Washington Center
06:41PM 40.1833 -74.9833 46° Northeast 284 327 9,900 -1,260 Descending New York TRACON
06:42PM 40.2500 -74.9167 37° Northeast 292 336 8,300 -1,020 Descending New York TRACON
06:43PM 40.3000 -74.8500 45° Northeast 276 318 8,000 -540 Descending New York TRACON
06:44PM 40.3333 -74.7500 66° East 287 330 7,300 -960 Descending New York TRACON
06:45PM 40.3667 -74.6667 62° Northeast 276 318 6,100 -1,140 Descending New York TRACON
06:46PM 40.4000 -74.5833 62° Northeast 272 313 5,100 -660 Descending New York TRACON
06:47PM 40.4333 -74.5000 62° Northeast 244 281 4,900 -600 Descending New York TRACON
06:48PM 40.4667 -74.4167 62° Northeast 229 264 4,000 -480 Descending New York TRACON
06:49PM 40.4833 -74.3667 66° East 228 262 4,000 -480 Level New York TRACON
06:50PM 40.5167 -74.2833 62° Northeast 219 252 3,100 -660 Descending New York TRACON
06:51PM 40.5667 -74.2500 27° Northeast 193 222 2,700 -720 Descending New York TRACON
06:52PM 40.6000 -74.2167 37° Northeast 161 185 1,700 -1,020 Descending New York TRACON